Time;durP1;ratioP1;P1;durP2;ratioP2;P2;SDS_P1;SDS_P2;PMS_P1;PMS_P2;Temp;Humidity;BMP_temperature;BMP_pressure;BME280_temperature;BME280_humidity;BME280_pressure;Samples;Min_cycle;Max_cycle;Signal;HPM_P1;HPM_P2
2023/12/04 00:01:05;;;;;;;22.70;10.85;;;;;;;2.66;100.00;97884.25;5075969;28;20096;-83
2023/12/04 00:03:49;;;;;;;41.20;11.27;;;;;;;2.39;100.00;97883.78;5077155;28;20520;-82
2023/12/04 00:06:33;;;;;;;100.75;14.50;;;;;;;2.28;100.00;97881.56;5074372;28;20113;-82
2023/12/04 00:09:17;;;;;;;24.40;10.52;;;;;;;2.51;100.00;97873.00;5078236;28;20121;-81
2023/12/04 00:12:01;;;;;;;280.30;27.60;;;;;;;2.67;100.00;97864.34;5076658;28;20040;-80
2023/12/04 00:14:46;;;;;;;71.65;15.93;;;;;;;2.68;100.00;97860.78;5077241;28;20046;-80
2023/12/04 00:17:30;;;;;;;28.10;11.70;;;;;;;2.61;100.00;97855.47;5076429;28;20063;-84
2023/12/04 00:20:14;;;;;;;67.10;15.02;;;;;;;2.76;100.00;97863.28;5078809;28;20559;-85
2023/12/04 00:22:58;;;;;;;27.25;11.52;;;;;;;2.75;100.00;97855.69;5076541;28;20051;-85
2023/12/04 00:25:42;;;;;;;49.13;12.40;;;;;;;2.49;100.00;97856.84;5078036;28;20043;-83
2023/12/04 00:28:28;;;;;;;36.88;12.88;;;;;;;2.36;100.00;97852.22;5076828;28;20123;-82
2023/12/04 00:31:12;;;;;;;30.58;12.35;;;;;;;2.53;100.00;97847.72;5079218;28;20401;-85
2023/12/04 00:33:56;;;;;;;22.08;11.63;;;;;;;2.28;100.00;97840.94;5079585;28;20043;-83
2023/12/04 00:36:40;;;;;;;20.50;10.02;;;;;;;2.29;100.00;97841.72;5082404;28;20048;-83
2023/12/04 00:39:24;;;;;;;56.03;15.40;;;;;;;2.05;100.00;97835.72;5079479;28;20485;-84
2023/12/04 00:42:08;;;;;;;20.33;9.32;;;;;;;2.41;100.00;97830.03;5073435;28;20751;-85
2023/12/04 00:44:52;;;;;;;34.47;10.65;;;;;;;2.26;100.00;97826.53;5078603;28;20389;-85
2023/12/04 00:47:36;;;;;;;27.27;10.48;;;;;;;2.30;100.00;97816.66;5077633;28;20084;-84
2023/12/04 00:50:20;;;;;;;22.95;11.02;;;;;;;2.42;100.00;97807.50;5081592;28;20052;-85
2023/12/04 00:53:04;;;;;;;20.70;9.25;;;;;;;2.37;100.00;97800.28;5078321;28;20048;-85
2023/12/04 00:55:48;;;;;;;33.45;11.32;;;;;;;2.12;100.00;97795.22;5079232;28;20058;-85
2023/12/04 00:58:32;;;;;;;33.80;10.93;;;;;;;2.27;100.00;97786.72;5075572;28;20034;-84
2023/12/04 01:01:16;;;;;;;22.77;9.23;;;;;;;2.39;100.00;97772.41;5080934;28;20040;-85
2023/12/04 01:04:00;;;;;;;55.95;11.85;;;;;;;2.00;100.00;97775.91;5079407;28;20043;-86
2023/12/04 01:06:44;;;;;;;28.85;11.18;;;;;;;2.32;100.00;97768.88;5081179;28;20039;-87
2023/12/04 01:09:28;;;;;;;22.20;9.57;;;;;;;2.33;100.00;97760.13;5073062;28;20071;-85
2023/12/04 01:12:11;;;;;;;57.85;12.27;;;;;;;2.26;100.00;97743.69;5079210;28;20081;-87
2023/12/04 01:14:56;;;;;;;43.92;10.80;;;;;;;2.49;100.00;97748.88;5080141;28;20393;-86
2023/12/04 01:17:40;;;;;;;268.65;24.83;;;;;;;2.13;100.00;97741.69;5080637;28;20051;-83
2023/12/04 01:20:24;;;;;;;213.50;18.85;;;;;;;2.41;100.00;97751.50;5079897;28;20104;-87
2023/12/04 01:23:08;;;;;;;246.52;24.05;;;;;;;2.32;100.00;97747.38;5082278;28;20048;-85
2023/12/04 01:25:52;;;;;;;302.85;24.10;;;;;;;2.42;100.00;97733.22;5085276;28;20093;-84
2023/12/04 01:28:36;;;;;;;330.10;29.00;;;;;;;2.36;100.00;97723.56;5087922;28;20038;-83
2023/12/04 01:31:20;;;;;;;246.77;23.55;;;;;;;2.38;100.00;97736.31;5082713;28;20071;-84
2023/12/04 01:34:04;;;;;;;389.50;34.30;;;;;;;2.37;100.00;97732.94;5083140;28;20513;-84
2023/12/04 01:36:48;;;;;;;266.10;25.85;;;;;;;2.31;100.00;97736.19;5083981;28;20051;-85
2023/12/04 01:39:32;;;;;;;169.82;17.92;;;;;;;2.61;100.00;97723.34;5082590;28;20070;-83
2023/12/04 01:42:16;;;;;;;553.65;42.92;;;;;;;2.32;100.00;97730.03;5084741;28;20054;-84
2023/12/04 01:45:00;;;;;;;68.97;12.85;;;;;;;2.75;100.00;97726.94;5078298;28;20043;-85
2023/12/04 01:47:46;;;;;;;100.43;14.82;;;;;;;2.28;100.00;97726.19;5080603;28;20093;-84
2023/12/04 01:50:30;;;;;;;198.70;23.80;;;;;;;2.52;100.00;97726.97;5085803;28;20047;-84
2023/12/04 01:53:14;;;;;;;129.85;16.00;;;;;;;2.31;100.00;97712.09;5080687;28;20117;-83
2023/12/04 01:55:58;;;;;;;27.52;10.98;;;;;;;2.69;100.00;97712.88;5082474;28;20035;-84
2023/12/04 01:58:43;;;;;;;145.98;16.65;;;;;;;2.45;100.00;97702.75;5080330;28;20445;-85
2023/12/04 02:01:28;;;;;;;92.10;13.95;;;;;;;2.42;100.00;97701.31;5083342;28;20073;-86
2023/12/04 02:04:12;;;;;;;144.50;15.90;;;;;;;2.56;100.00;97702.34;5083689;28;20113;-86
2023/12/04 02:06:59;;;;;;;41.78;10.60;;;;;;;2.75;100.00;97695.84;5079123;28;20056;-85
2023/12/04 02:09:43;;;;;;;91.20;14.30;;;;;;;3.11;100.00;97689.13;5085029;28;20062;-84
2023/12/04 02:12:27;;;;;;;72.43;14.32;;;;;;;2.74;100.00;97685.63;5080376;28;20043;-86
2023/12/04 02:15:11;;;;;;;73.13;11.57;;;;;;;2.76;100.00;97688.88;5076305;28;20051;-87
2023/12/04 02:17:55;;;;;;;27.35;10.50;;;;;;;2.71;100.00;97679.03;5080337;28;20054;-85
2023/12/04 02:20:39;;;;;;;33.35;10.90;;;;;;;2.89;100.00;97683.09;5081612;28;20097;-85
2023/12/04 02:23:23;;;;;;;402.65;31.25;;;;;;;2.83;100.00;97687.97;5086524;28;20044;-86
2023/12/04 02:26:15;;;;;;;163.02;16.83;;;;;;;2.61;100.00;97676.72;5077389;28;20086;-85
2023/12/04 02:29:07;;;;;;;133.73;14.43;;;;;;;4.50;100.00;97678.75;5075497;28;20052;-84
2023/12/04 02:31:53;;;;;;;118.43;13.57;;;;;;;3.20;100.00;97693.25;5085503;28;20069;-85
2023/12/04 02:34:38;;;;;;;54.10;11.07;;;;;;;2.74;100.00;97676.09;5073519;28;20055;-84
2023/12/04 02:37:23;;;;;;;68.45;11.32;;;;;;;3.03;100.00;97674.47;5079893;28;20081;-85
2023/12/04 02:40:07;;;;;;;36.28;8.95;;;;;;;3.21;100.00;97660.34;5079316;28;20039;-85
2023/12/04 02:42:51;;;;;;;21.85;8.50;;;;;;;3.24;100.00;97663.38;5076208;28;20055;-84
2023/12/04 02:45:35;;;;;;;37.05;9.38;;;;;;;3.54;100.00;97655.56;5081115;28;20051;-84
2023/12/04 02:48:19;;;;;;;32.58;9.70;;;;;;;3.59;100.00;97649.00;5083329;28;20047;-84
2023/12/04 02:51:04;;;;;;;38.83;10.30;;;;;;;3.77;100.00;97653.75;5082941;28;20051;-84
2023/12/04 02:53:48;;;;;;;24.50;9.30;;;;;;;3.83;100.00;97648.63;5079930;28;20105;-84
2023/12/04 02:56:32;;;;;;;25.67;10.15;;;;;;;3.96;100.00;97650.56;5079566;28;20112;-83
2023/12/04 02:59:16;;;;;;;53.72;11.98;;;;;;;3.64;100.00;97637.09;5079286;28;22049;-82
2023/12/04 03:02:00;;;;;;;128.27;15.35;;;;;;;3.64;100.00;97642.28;5080907;28;20043;-83
2023/12/04 03:04:45;;;;;;;33.78;10.10;;;;;;;3.92;100.00;97617.34;5082927;28;20065;-83
2023/12/04 03:07:29;;;;;;;32.70;10.95;;;;;;;3.70;100.00;97625.16;5080558;28;20043;-82
2023/12/04 03:10:13;;;;;;;148.98;16.77;;;;;;;3.80;100.00;97607.47;5075035;28;20098;-83
2023/12/04 03:12:57;;;;;;;74.28;12.25;;;;;;;3.83;100.00;97609.72;5084879;28;20097;-82
2023/12/04 03:15:40;;;;;;;42.25;11.55;;;;;;;3.66;100.00;97619.53;5081567;28;20043;-81
2023/12/04 03:18:25;;;;;;;34.75;11.57;;;;;;;3.60;100.00;97614.28;5082855;28;20120;-84
2023/12/04 03:21:09;;;;;;;24.27;10.30;;;;;;;3.81;100.00;97603.91;5079558;28;20467;-83
2023/12/04 03:23:54;;;;;;;25.65;11.38;;;;;;;3.80;100.00;97594.50;5085197;28;20505;-82
2023/12/04 03:26:38;;;;;;;74.15;13.52;;;;;;;3.89;100.00;97608.16;5074175;28;20048;-82
2023/12/04 03:29:22;;;;;;;54.15;12.43;;;;;;;3.59;100.00;97621.25;5076535;28;20055;-83
2023/12/04 03:32:06;;;;;;;37.78;12.02;;;;;;;3.90;100.00;97621.94;5078107;28;20508;-83
2023/12/04 03:34:50;;;;;;;28.17;10.43;;;;;;;4.04;100.00;97609.88;5081583;28;20048;-82
2023/12/04 03:37:34;;;;;;;51.10;11.98;;;;;;;3.82;100.00;97589.94;5077096;28;20080;-82
2023/12/04 03:40:18;;;;;;;71.47;14.60;;;;;;;3.93;100.00;97574.81;5080446;28;20039;-82
2023/12/04 03:43:02;;;;;;;40.05;11.52;;;;;;;3.69;100.00;97556.88;5077343;28;20043;-83
2023/12/04 03:45:46;;;;;;;30.52;11.27;;;;;;;3.88;100.00;97548.63;5080129;28;20524;-83
2023/12/04 03:48:30;;;;;;;27.20;10.43;;;;;;;3.77;100.00;97544.75;5077271;28;20072;-84
2023/12/04 03:51:14;;;;;;;109.00;14.50;;;;;;;3.48;100.00;97536.94;5077536;28;20120;-83
2023/12/04 03:53:58;;;;;;;63.08;13.77;;;;;;;3.60;100.00;97532.03;5080228;28;20052;-84
2023/12/04 03:56:42;;;;;;;24.27;10.02;;;;;;;4.04;100.00;97537.97;5083904;28;20405;-84
2023/12/04 03:59:26;;;;;;;37.00;10.13;;;;;;;3.69;100.00;97537.91;5077734;28;20127;-84
2023/12/04 04:02:10;;;;;;;46.30;11.07;;;;;;;3.98;100.00;97528.34;5074281;28;20042;-85
2023/12/04 04:04:54;;;;;;;53.33;11.75;;;;;;;3.73;100.00;97518.38;5080676;28;20409;-83
2023/12/04 04:07:39;;;;;;;133.35;15.43;;;;;;;3.86;100.00;97513.28;5077750;28;20048;-83
2023/12/04 04:10:23;;;;;;;119.18;16.15;;;;;;;3.74;100.00;97507.03;5079200;28;20047;-83
2023/12/04 04:13:07;;;;;;;81.18;12.90;;;;;;;3.72;100.00;97508.97;5077776;28;20055;-84
2023/12/04 04:15:51;;;;;;;40.10;10.90;;;;;;;3.58;100.00;97492.50;5082825;28;20063;-83
2023/12/04 04:18:35;;;;;;;146.88;17.77;;;;;;;3.70;100.00;97493.63;5079537;28;20043;-84
2023/12/04 04:21:19;;;;;;;253.45;24.00;;;;;;;3.97;100.00;97495.59;5080682;28;20181;-83
2023/12/04 04:24:03;;;;;;;144.57;17.48;;;;;;;3.42;100.00;97488.41;5074731;28;20043;-85
2023/12/04 04:26:47;;;;;;;113.40;12.65;;;;;;;3.72;100.00;97488.22;5078465;28;20483;-84
2023/12/04 04:29:32;;;;;;;113.47;20.08;;;;;;;3.93;100.00;97481.38;5077459;28;20142;-83
2023/12/04 04:32:15;;;;;;;300.30;28.73;;;;;;;3.86;100.00;97479.53;5076968;28;20047;-83
2023/12/04 04:34:59;;;;;;;238.70;20.42;;;;;;;4.03;100.00;97486.22;5076925;28;20050;-85
2023/12/04 04:37:43;;;;;;;442.48;36.35;;;;;;;3.84;100.00;97472.94;5079641;28;20115;-83
2023/12/04 04:40:27;;;;;;;454.17;32.58;;;;;;;3.71;100.00;97471.03;5071796;28;20593;-83
2023/12/04 04:43:11;;;;;;;188.15;16.75;;;;;;;3.88;100.00;97470.75;5078180;28;20059;-86
2023/12/04 04:45:55;;;;;;;29.20;8.93;;;;;;;3.84;100.00;97468.53;5075383;28;20109;-86
2023/12/04 04:48:40;;;;;;;39.10;9.18;;;;;;;3.93;100.00;97466.59;5078577;28;20789;-84
2023/12/04 04:51:24;;;;;;;82.20;12.20;;;;;;;3.94;100.00;97462.22;5078039;28;20043;-85
2023/12/04 04:54:08;;;;;;;49.50;9.70;;;;;;;4.16;100.00;97462.16;5078916;28;20121;-85
2023/12/04 04:56:52;;;;;;;50.78;10.48;;;;;;;4.20;100.00;97456.34;5077469;28;20036;-86
2023/12/04 04:59:35;;;;;;;18.25;8.15;;;;;;;3.92;100.00;97457.22;5077702;28;20039;-84
2023/12/04 05:02:19;;;;;;;20.05;9.10;;;;;;;4.07;100.00;97453.72;5076225;28;20096;-83
2023/12/04 05:05:04;;;;;;;29.25;8.98;;;;;;;3.55;100.00;97447.00;5079788;28;20113;-83
2023/12/04 05:07:49;;;;;;;27.08;9.85;;;;;;;3.95;100.00;97449.03;5076967;28;20118;-82
2023/12/04 05:10:33;;;;;;;24.15;9.20;;;;;;;4.13;100.00;97442.53;5075630;28;20054;-84
2023/12/04 05:13:17;;;;;;;19.83;9.10;;;;;;;4.20;100.00;97437.38;5080997;28;20082;-84
2023/12/04 05:16:01;;;;;;;19.88;8.75;;;;;;;4.31;100.00;97439.41;5078059;28;20390;-85
2023/12/04 05:18:45;;;;;;;14.68;8.10;;;;;;;4.24;100.00;97433.41;5077867;28;20451;-84
2023/12/04 05:21:29;;;;;;;22.20;8.07;;;;;;;3.99;100.00;97426.88;5078598;28;20038;-83
2023/12/04 05:24:13;;;;;;;16.75;8.63;;;;;;;4.17;100.00;97430.78;5079803;28;20042;-85
2023/12/04 05:26:58;;;;;;;32.97;9.20;;;;;;;4.11;100.00;97428.97;5079975;28;20042;-84
2023/12/04 05:29:42;;;;;;;19.38;8.65;;;;;;;4.20;100.00;97416.63;5081140;28;20145;-84
2023/12/04 05:32:26;;;;;;;18.48;7.65;;;;;;;4.09;100.00;97416.16;5076714;28;20043;-85
2023/12/04 05:35:10;;;;;;;38.70;9.50;;;;;;;3.80;100.00;97412.81;5081888;28;20059;-84
2023/12/04 05:37:54;;;;;;;51.88;9.70;;;;;;;3.96;100.00;97411.69;5080068;28;20547;-84
2023/12/04 05:40:38;;;;;;;27.63;8.85;;;;;;;3.96;100.00;97416.09;5076808;28;21722;-84
2023/12/04 05:43:22;;;;;;;20.20;7.55;;;;;;;3.92;100.00;97410.50;5077477;28;20182;-84
2023/12/04 05:46:05;;;;;;;133.52;13.98;;;;;;;3.80;100.00;97404.22;5075933;28;20565;-84
2023/12/04 05:48:49;;;;;;;27.85;8.40;;;;;;;3.83;100.00;97402.06;5079305;28;20051;-83
2023/12/04 05:51:33;;;;;;;21.85;8.10;;;;;;;3.53;100.00;97402.25;5075225;28;20555;-84
2023/12/04 05:54:17;;;;;;;36.35;8.85;;;;;;;3.80;100.00;97405.03;5074844;28;20094;-85
2023/12/04 05:57:02;;;;;;;31.50;7.55;;;;;;;3.73;100.00;97404.19;5076337;28;20055;-84
2023/12/04 05:59:46;;;;;;;17.02;7.50;;;;;;;3.88;100.00;97387.69;5077748;28;20070;-84
2023/12/04 06:02:30;;;;;;;43.20;8.93;;;;;;;4.24;100.00;97391.84;5075340;28;20040;-83
2023/12/04 06:05:14;;;;;;;29.67;7.72;;;;;;;4.07;100.00;97386.19;5078234;28;20867;-85
2023/12/04 06:07:58;;;;;;;177.45;16.23;;;;;;;3.95;100.00;97375.56;5080072;28;20468;-84
2023/12/04 06:10:42;;;;;;;253.02;20.42;;;;;;;3.81;100.00;97383.28;5077880;28;20043;-83
2023/12/04 06:13:26;;;;;;;444.10;38.20;;;;;;;3.96;100.00;97384.97;5084303;28;20039;-82
2023/12/04 06:16:10;;;;;;;417.70;30.52;;;;;;;3.78;100.00;97377.66;5076680;28;20121;-83
2023/12/04 06:18:54;;;;;;;360.13;26.67;;;;;;;4.06;100.00;97375.00;5089404;28;20463;-84
2023/12/04 06:21:38;;;;;;;93.82;12.80;;;;;;;4.20;100.00;97368.06;5081611;28;20090;-83
2023/12/04 06:24:22;;;;;;;182.20;15.65;;;;;;;4.29;100.00;97359.09;5077765;28;20098;-84
2023/12/04 06:27:09;;;;;;;199.55;17.15;;;;;;;4.20;100.00;97359.47;5077180;28;20118;-84
2023/12/04 06:29:53;;;;;;;345.88;27.73;;;;;;;4.12;100.00;97356.03;5080179;28;20046;-84
2023/12/04 06:32:37;;;;;;;353.98;29.23;;;;;;;4.42;100.00;97358.34;5076708;28;20182;-84
2023/12/04 06:35:22;;;;;;;211.25;19.38;;;;;;;4.32;100.00;97354.50;5084521;28;20055;-84
2023/12/04 06:38:07;;;;;;;394.92;26.75;;;;;;;4.33;100.00;97349.13;5079184;28;20043;-82
2023/12/04 06:40:52;;;;;;;227.95;20.90;;;;;;;4.41;100.00;97335.97;5079759;28;20047;-83
2023/12/04 06:43:39;;;;;;;820.72;63.58;;;;;;;4.31;100.00;97345.13;5073682;28;20366;-82
2023/12/04 06:46:25;;;;;;;692.60;50.45;;;;;;;4.39;100.00;97332.75;5076024;28;20529;-82
2023/12/04 06:49:11;;;;;;;173.23;14.02;;;;;;;4.41;100.00;97333.34;5080909;28;20100;-83
2023/12/04 06:51:55;;;;;;;743.95;55.40;;;;;;;4.41;100.00;97329.94;5081017;28;20129;-81
2023/12/04 06:54:39;;;;;;;481.98;31.40;;;;;;;4.50;100.00;97333.16;5083038;28;20055;-83
2023/12/04 06:57:23;;;;;;;460.15;31.77;;;;;;;4.53;100.00;97325.00;5079070;28;20447;-81
2023/12/04 07:00:08;;;;;;;908.60;68.90;;;;;;;4.24;100.00;97319.94;5075890;28;20043;-81
2023/12/04 07:02:52;;;;;;;1643.20;132.90;;;;;;;4.48;100.00;97329.97;5075779;28;20047;-81
2023/12/04 07:05:36;;;;;;;583.22;43.92;;;;;;;4.58;100.00;97327.78;5082893;28;20100;-80
2023/12/04 07:08:20;;;;;;;903.47;79.25;;;;;;;4.66;100.00;97332.78;5079014;28;20050;-81
2023/12/04 07:11:06;;;;;;;131.50;13.75;;;;;;;4.57;100.00;97328.78;5076580;28;20043;-80
2023/12/04 07:13:49;;;;;;;890.25;67.25;;;;;;;4.58;100.00;97327.78;5082393;28;20402;-80
2023/12/04 07:16:41;;;;;;;1198.00;94.30;;;;;;;4.57;100.00;97328.78;5078505;28;20039;-81
2023/12/04 07:19:26;;;;;;;404.30;32.00;;;;;;;4.85;100.00;97335.59;5085515;28;20042;-82
2023/12/04 07:22:10;;;;;;;890.05;80.45;;;;;;;4.69;100.00;97321.22;5081066;28;20056;-81
2023/12/04 07:24:55;;;;;;;452.20;33.70;;;;;;;4.59;100.00;97321.59;5078695;28;20046;-82
2023/12/04 07:27:39;;;;;;;638.10;54.00;;;;;;;5.36;100.00;97321.16;5080049;28;20042;-82
2023/12/04 07:30:24;;;;;;;488.00;37.88;;;;;;;5.53;100.00;97320.72;5079360;28;20097;-82
2023/12/04 07:33:08;;;;;;;1211.57;98.75;;;;;;;5.50;100.00;97311.53;5077405;28;20119;-82
2023/12/04 07:35:53;;;;;;;580.55;45.90;;;;;;;5.14;100.00;97323.22;5079311;28;20047;-84
2023/12/04 07:38:36;;;;;;;1004.40;87.75;;;;;;;4.78;100.00;97329.63;5081289;28;20085;-82
2023/12/04 07:41:21;;;;;;;929.58;74.63;;;;;;;4.51;100.00;97321.78;5082758;28;20121;-81
2023/12/04 07:44:06;;;;;;;552.42;43.25;;;;;;;4.51;100.00;97324.38;5081110;28;20132;-82
2023/12/04 07:46:50;;;;;;;282.25;24.23;;;;;;;4.51;100.00;97319.16;5076063;28;20047;-80
2023/12/04 07:49:34;;;;;;;843.42;74.43;;;;;;;4.53;100.00;97327.59;5077615;28;20112;-79
2023/12/04 07:52:18;;;;;;;986.38;87.82;;;;;;;4.41;100.00;97320.38;5077925;28;20089;-79
2023/12/04 07:55:03;;;;;;;756.92;64.18;;;;;;;4.41;100.00;97317.78;5074334;28;20167;-80
2023/12/04 07:57:48;;;;;;;713.45;57.53;;;;;;;4.72;100.00;97321.63;5080309;28;20051;-79
2023/12/04 08:00:32;;;;;;;817.40;63.85;;;;;;;5.05;100.00;97319.19;5071014;28;20043;-80
2023/12/04 08:03:16;;;;;;;275.27;24.15;;;;;;;4.83;100.00;97327.19;5074845;28;20086;-79
2023/12/04 08:06:00;;;;;;;451.65;35.85;;;;;;;5.38;100.00;97328.78;5068017;28;20052;-80
2023/12/04 08:08:45;;;;;;;296.95;27.88;;;;;;;4.84;100.00;97328.81;5073228;28;20043;-79
2023/12/04 08:11:28;;;;;;;576.95;48.40;;;;;;;4.75;100.00;97325.59;5080552;28;20121;-80
2023/12/04 08:14:12;;;;;;;787.00;61.90;;;;;;;4.94;100.00;97339.63;5078890;28;20054;-80
2023/12/04 08:16:56;;;;;;;1167.57;91.05;;;;;;;4.53;100.00;97325.00;5078270;28;20066;-81
2023/12/04 08:19:41;;;;;;;383.05;32.22;;;;;;;4.94;100.00;97331.00;5068801;28;20103;-82
2023/12/04 08:22:25;;;;;;;224.07;24.50;;;;;;;5.02;100.00;97330.00;5074826;28;20497;-79
2023/12/04 08:25:09;;;;;;;239.52;25.70;;;;;;;4.99;100.00;97329.41;5081317;28;20079;-86
2023/12/04 08:27:53;;;;;;;464.35;45.97;;;;;;;5.82;100.00;97329.84;5078321;28;20043;-85
2023/12/04 08:30:38;;;;;;;344.02;36.90;;;;;;;5.20;100.00;97325.00;5080766;28;20043;-85
2023/12/04 08:33:22;;;;;;;537.17;46.92;;;;;;;5.31;100.00;97333.19;5077252;28;20051;-86
2023/12/04 08:36:07;;;;;;;626.78;56.53;;;;;;;5.15;100.00;97335.22;5076681;28;20051;-85
2023/12/04 08:38:51;;;;;;;190.93;20.50;;;;;;;5.20;100.00;97327.59;5081411;28;20092;-85
2023/12/04 08:41:35;;;;;;;385.25;42.67;;;;;;;5.17;100.00;97332.38;5076873;28;20181;-86
2023/12/04 08:44:19;;;;;;;499.77;46.63;;;;;;;5.14;100.00;97328.41;5076369;28;20097;-86
2023/12/04 08:47:04;;;;;;;460.42;39.35;;;;;;;5.17;100.00;97328.00;5078434;28;20454;-85
2023/12/04 08:49:48;;;;;;;401.55;36.33;;;;;;;5.92;100.00;97323.41;5077222;28;20050;-86
2023/12/04 08:52:32;;;;;;;591.28;55.97;;;;;;;5.39;100.00;97332.97;5076199;28;20497;-86
2023/12/04 08:55:16;;;;;;;1118.57;91.88;;;;;;;5.10;100.00;97329.78;5077449;28;20120;-86
2023/12/04 08:58:00;;;;;;;409.25;37.83;;;;;;;5.24;100.00;97333.97;5074113;28;20044;-86
2023/12/04 09:00:44;;;;;;;160.35;22.23;;;;;;;5.35;100.00;97329.19;5079048;28;20039;-86
2023/12/04 09:03:28;;;;;;;501.20;43.10;;;;;;;5.34;100.00;97332.78;5077032;28;20551;-86
2023/12/04 09:06:12;;;;;;;1120.32;93.43;;;;;;;5.51;100.00;97335.75;5075758;28;20137;-86
2023/12/04 09:08:56;;;;;;;602.30;49.75;;;;;;;5.35;100.00;97337.78;5080933;28;20540;-85
2023/12/04 09:11:42;;;;;;;766.53;65.15;;;;;;;5.18;100.00;97329.59;5077262;28;20043;-86
2023/12/04 09:14:27;;;;;;;930.70;74.72;;;;;;;5.22;100.00;97327.41;5081742;28;20101;-86
2023/12/04 09:17:12;;;;;;;444.00;40.67;;;;;;;5.43;100.00;97321.97;5084932;28;20051;-86
2023/12/04 09:19:57;;;;;;;581.80;48.35;;;;;;;5.66;100.00;97319.88;5074404;28;20186;-86
2023/12/04 09:22:41;;;;;;;914.17;75.68;;;;;;;5.45;100.00;97323.56;5077265;28;20157;-86
2023/12/04 09:25:25;;;;;;;224.40;25.42;;;;;;;5.65;100.00;97328.69;5074514;28;20091;-86
2023/12/04 09:28:10;;;;;;;540.15;47.10;;;;;;;5.57;100.00;97338.34;5079627;28;20132;-86
2023/12/04 09:30:54;;;;;;;545.47;49.30;;;;;;;5.74;100.00;97332.69;5072780;28;20039;-86
2023/12/04 09:33:38;;;;;;;81.30;15.40;;;;;;;5.96;100.00;97332.41;5080193;28;20047;-85
2023/12/04 09:36:22;;;;;;;135.93;20.05;;;;;;;6.11;100.00;97327.78;5075814;28;20046;-85
2023/12/04 09:39:06;;;;;;;328.17;31.25;;;;;;;6.25;100.00;97328.50;5076777;28;20165;-86
2023/12/04 09:41:50;;;;;;;579.65;53.85;;;;;;;6.19;100.00;97334.53;5081265;28;20040;-86
2023/12/04 09:44:37;;;;;;;140.20;23.63;;;;;;;6.29;100.00;97334.88;5088144;28;20055;-86
2023/12/04 09:47:21;;;;;;;667.15;57.97;;;;;;;6.37;100.00;97335.63;5081125;28;20043;-87
2023/12/04 09:50:06;;;;;;;1211.53;102.85;;;;;;;6.02;100.00;97336.81;5079032;28;20038;-85
2023/12/04 09:52:52;;;;;;;387.77;42.83;;;;;;;6.31;100.00;97337.28;5079287;28;20136;-84
2023/12/04 09:55:36;;;;;;;233.88;29.13;;;;;;;6.39;100.00;97331.81;5078475;28;20093;-84
2023/12/04 09:58:21;;;;;;;1003.15;87.43;;;;;;;6.45;100.00;97337.19;5080434;28;20044;-86
2023/12/04 10:01:07;;;;;;;1087.45;95.32;;;;;;;6.32;100.00;97336.28;5080837;28;20128;-84
2023/12/04 10:03:51;;;;;;;855.53;74.53;;;;;;;6.47;100.00;97341.19;5081924;28;20102;-86
2023/12/04 10:06:37;;;;;;;260.33;35.30;;;;;;;6.34;100.00;97338.66;5077679;28;20434;-86
2023/12/04 10:09:22;;;;;;;431.50;44.17;;;;;;;6.48;100.00;97341.97;5080888;28;20147;-86
2023/12/04 10:12:07;;;;;;;672.08;60.90;;;;;;;6.36;100.00;97334.03;5082255;28;20168;-87
2023/12/04 10:15:12;;;;;;;798.85;66.30;;;;;;;6.47;100.00;97335.16;5077901;28;20039;-85
2023/12/04 10:17:56;;;;;;;353.90;36.92;;;;;;;6.49;100.00;97333.19;5077960;28;20039;-85
2023/12/04 10:20:52;;;;;;;605.03;54.00;;;;;;;6.32;100.00;97336.28;5079693;28;20090;-86
2023/12/04 10:23:38;;;;;;;761.83;70.93;;;;;;;6.12;100.00;97331.97;5075161;28;20047;-84
2023/12/04 10:26:23;;;;;;;323.92;31.05;;;;;;;6.16;100.00;97334.16;5082422;28;20036;-85
2023/12/04 10:29:07;;;;;;;923.67;81.15;;;;;;;6.08;100.00;97332.59;5081337;28;20518;-85
2023/12/04 10:31:52;;;;;;;197.60;28.58;;;;;;;6.26;100.00;97337.09;5079602;28;20039;-84
2023/12/04 10:34:36;;;;;;;677.60;56.83;;;;;;;6.11;100.00;97335.59;5078242;28;20055;-85
2023/12/04 10:37:20;;;;;;;151.07;23.55;;;;;;;6.31;100.00;97337.28;5081275;28;20048;-84
2023/12/04 10:40:08;;;;;;;991.83;88.55;;;;;;;6.08;100.00;97335.19;5084032;28;20539;-85
2023/12/04 10:43:19;;;;;;;1057.68;87.15;;;;;;;6.10;100.00;97336.59;5076792;28;20094;-85
2023/12/04 10:46:04;;;;;;;1002.55;87.93;;;;;;;6.01;100.00;97322.19;5083216;28;20035;-85
2023/12/04 10:48:48;;;;;;;677.67;58.25;;;;;;;5.99;100.00;97324.19;5077128;28;20547;-85
2023/12/04 10:51:34;;;;;;;663.60;60.90;;;;;;;6.16;100.00;97323.72;5082087;28;20074;-86
2023/12/04 10:54:18;;;;;;;612.17;52.78;;;;;;;6.35;100.00;97322.00;5084811;28;20071;-85
2023/12/04 10:57:04;;;;;;;173.05;23.27;;;;;;;6.32;100.00;97320.66;5079332;28;20393;-85
2023/12/04 10:59:55;;;;;;;1093.57;86.20;;;;;;;6.06;100.00;97324.19;5082212;28;20047;-85
2023/12/04 11:02:46;;;;;;;321.73;32.65;;;;;;;6.22;100.00;97312.47;5079912;28;20048;-85
2023/12/04 11:05:34;;;;;;;747.70;62.15;;;;;;;6.22;100.00;97317.69;5077433;28;20055;-85
2023/12/04 11:08:19;;;;;;;500.40;45.92;;;;;;;6.26;100.00;97314.47;5082415;28;20460;-85
2023/12/04 11:11:10;;;;;;;261.23;28.55;;;;;;;6.41;100.00;97308.94;5080125;28;20091;-84
2023/12/04 11:13:58;;;;;;;646.80;56.30;;;;;;;6.51;100.00;97310.31;5085823;28;20090;-86
2023/12/04 11:16:48;;;;;;;487.90;41.60;;;;;;;6.64;100.00;97304.97;5083247;28;20139;-84
2023/12/04 11:19:47;;;;;;;1151.05;98.57;;;;;;;6.30;100.00;97309.63;5080418;28;20090;-84
2023/12/04 11:22:32;;;;;;;898.30;76.53;;;;;;;6.56;100.00;97302.66;5081347;28;20038;-85
2023/12/04 11:25:16;;;;;;;316.25;29.05;;;;;;;6.74;100.00;97303.72;5080172;28;20043;-85
2023/12/04 11:28:02;;;;;;;1457.70;130.15;;;;;;;6.60;100.00;97305.63;5072578;28;20085;-87
2023/12/04 11:30:47;;;;;;;1401.97;122.30;;;;;;;6.61;100.00;97304.63;5081106;28;20039;-84
2023/12/04 11:33:36;;;;;;;700.17;64.13;;;;;;;6.28;100.00;97306.41;5078021;28;20456;-84
2023/12/04 11:36:21;;;;;;;299.25;37.47;;;;;;;6.52;100.00;97294.44;5077828;28;20098;-85
2023/12/04 11:39:12;;;;;;;288.95;31.02;;;;;;;6.63;100.00;97300.00;5083855;28;20066;-86
2023/12/04 11:42:00;;;;;;;568.33;51.13;;;;;;;6.68;100.00;97289.72;5075635;28;20043;-86
2023/12/04 11:44:44;;;;;;;784.53;65.63;;;;;;;6.62;100.00;97296.56;5084079;28;20042;-84
2023/12/04 11:47:28;;;;;;;247.75;30.23;;;;;;;6.53;100.00;97290.03;5079263;28;20043;-84
2023/12/04 11:50:12;;;;;;;997.97;90.28;;;;;;;6.31;100.00;97285.16;5081197;28;20137;-85
2023/12/04 11:52:56;;;;;;;418.65;40.00;;;;;;;6.51;100.00;97287.63;5081146;28;22022;-84
2023/12/04 11:55:43;;;;;;;563.05;55.58;;;;;;;6.52;100.00;97280.63;5078226;28;20046;-85
2023/12/04 11:58:28;;;;;;;490.58;48.95;;;;;;;6.56;100.00;97281.78;5080408;28;20054;-85
2023/12/04 12:01:12;;;;;;;1062.20;88.18;;;;;;;6.46;100.00;97276.25;5080263;28;20043;-85
2023/12/04 12:03:58;;;;;;;1164.70;105.40;;;;;;;6.34;100.00;97276.94;5075958;28;20035;-84
2023/12/04 12:06:43;;;;;;;581.70;54.47;;;;;;;6.29;100.00;97274.16;5083021;28;20117;-86
2023/12/04 12:09:28;;;;;;;554.45;60.33;;;;;;;6.50;100.00;97282.66;5078311;28;20085;-85
2023/12/04 12:12:13;;;;;;;409.02;48.88;;;;;;;6.41;100.00;97272.47;5077416;28;20410;-85
2023/12/04 12:14:57;;;;;;;82.22;37.72;;;;;;;6.47;100.00;97272.63;5080077;28;20465;-85
2023/12/04 12:17:41;;;;;;;348.67;43.33;;;;;;;6.60;100.00;97279.56;5077792;28;20113;-86
2023/12/04 12:20:26;;;;;;;1005.67;89.43;;;;;;;6.48;100.00;97276.81;5082048;28;20051;-85
2023/12/04 12:23:10;;;;;;;611.70;56.60;;;;;;;6.53;100.00;97271.78;5080339;28;20456;-86
2023/12/04 12:25:54;;;;;;;536.05;49.67;;;;;;;6.55;100.00;97282.81;5078660;28;20067;-85
2023/12/04 12:28:38;;;;;;;486.70;56.38;;;;;;;6.64;100.00;97281.53;5070151;28;20044;-85
2023/12/04 12:31:22;;;;;;;1167.13;106.97;;;;;;;6.36;100.00;97282.72;5073273;28;20123;-85